sensor_id;sensor_type;location;lat;lon;timestamp;P1;durP1;ratioP1;P2;durP2;ratioP2
48268;SDS011;34088;52.232;5.196;2023-01-10T00:00:40;21.55;;;3.92;;
48268;SDS011;34088;52.232;5.196;2023-01-10T00:03:08;14.77;;;3.53;;
48268;SDS011;34088;52.232;5.196;2023-01-10T00:05:38;17.70;;;3.88;;
48268;SDS011;34088;52.232;5.196;2023-01-10T00:08:13;19.20;;;3.63;;
48268;SDS011;34088;52.232;5.196;2023-01-10T00:10:39;20.15;;;3.58;;
48268;SDS011;34088;52.232;5.196;2023-01-10T00:13:05;20.58;;;3.67;;
48268;SDS011;34088;52.232;5.196;2023-01-10T00:15:52;20.98;;;4.05;;
48268;SDS011;34088;52.232;5.196;2023-01-10T00:18:21;20.55;;;3.40;;
48268;SDS011;34088;52.232;5.196;2023-01-10T00:33:16;24.93;;;3.73;;
48268;SDS011;34088;52.232;5.196;2023-01-10T00:35:56;17.17;;;3.30;;
48268;SDS011;34088;52.232;5.196;2023-01-10T00:38:24;17.35;;;3.50;;
48268;SDS011;34088;52.232;5.196;2023-01-10T00:40:50;18.35;;;4.00;;
48268;SDS011;34088;52.232;5.196;2023-01-10T00:43:24;18.83;;;3.50;;
48268;SDS011;34088;52.232;5.196;2023-01-10T00:46:08;19.92;;;3.33;;
48268;SDS011;34088;52.232;5.196;2023-01-10T00:50:59;21.58;;;3.63;;
48268;SDS011;34088;52.232;5.196;2023-01-10T00:56:04;18.17;;;3.42;;
48268;SDS011;34088;52.232;5.196;2023-01-10T00:58:39;21.13;;;3.70;;
48268;SDS011;34088;52.232;5.196;2023-01-10T01:03:30;17.25;;;3.22;;
48268;SDS011;34088;52.232;5.196;2023-01-10T01:06:02;23.60;;;4.05;;
48268;SDS011;34088;52.232;5.196;2023-01-10T01:08:29;21.85;;;4.00;;
48268;SDS011;34088;52.232;5.196;2023-01-10T01:10:55;23.42;;;3.78;;
48268;SDS011;34088;52.232;5.196;2023-01-10T01:13:20;19.95;;;3.30;;
48268;SDS011;34088;52.232;5.196;2023-01-10T01:15:47;20.38;;;3.47;;
48268;SDS011;34088;52.232;5.196;2023-01-10T01:18:14;22.02;;;3.80;;
48268;SDS011;34088;52.232;5.196;2023-01-10T01:20:42;16.48;;;3.10;;
48268;SDS011;34088;52.232;5.196;2023-01-10T01:23:11;24.17;;;4.07;;
48268;SDS011;34088;52.232;5.196;2023-01-10T01:25:41;22.70;;;4.28;;
48268;SDS011;34088;52.232;5.196;2023-01-10T01:28:08;18.73;;;3.75;;
48268;SDS011;34088;52.232;5.196;2023-01-10T01:30:35;22.40;;;3.30;;
48268;SDS011;34088;52.232;5.196;2023-01-10T01:33:01;22.05;;;3.20;;
48268;SDS011;34088;52.232;5.196;2023-01-10T01:35:27;24.17;;;3.35;;
48268;SDS011;34088;52.232;5.196;2023-01-10T01:40:24;20.48;;;3.50;;
48268;SDS011;34088;52.232;5.196;2023-01-10T01:42:50;20.55;;;2.92;;
48268;SDS011;34088;52.232;5.196;2023-01-10T01:47:51;17.88;;;3.58;;
48268;SDS011;34088;52.232;5.196;2023-01-10T01:53:30;28.90;;;3.80;;
48268;SDS011;34088;52.232;5.196;2023-01-10T01:56:00;28.58;;;4.22;;
48268;SDS011;34088;52.232;5.196;2023-01-10T01:58:36;21.67;;;3.85;;
48268;SDS011;34088;52.232;5.196;2023-01-10T02:01:05;23.80;;;3.92;;
48268;SDS011;34088;52.232;5.196;2023-01-10T02:03:31;28.92;;;4.28;;
48268;SDS011;34088;52.232;5.196;2023-01-10T02:05:57;24.42;;;3.92;;
48268;SDS011;34088;52.232;5.196;2023-01-10T02:10:53;23.38;;;3.47;;
48268;SDS011;34088;52.232;5.196;2023-01-10T02:13:33;23.92;;;3.42;;
48268;SDS011;34088;52.232;5.196;2023-01-10T02:16:03;26.48;;;4.15;;
48268;SDS011;34088;52.232;5.196;2023-01-10T02:18:38;26.98;;;3.83;;
48268;SDS011;34088;52.232;5.196;2023-01-10T02:23:59;28.27;;;3.85;;
48268;SDS011;34088;52.232;5.196;2023-01-10T02:26:58;24.63;;;3.90;;
48268;SDS011;34088;52.232;5.196;2023-01-10T02:32:48;23.67;;;3.70;;
48268;SDS011;34088;52.232;5.196;2023-01-10T02:36:33;23.77;;;4.35;;
48268;SDS011;34088;52.232;5.196;2023-01-10T02:38:50;29.85;;;3.90;;
48268;SDS011;34088;52.232;5.196;2023-01-10T02:46:57;31.63;;;4.15;;
48268;SDS011;34088;52.232;5.196;2023-01-10T02:49:23;25.35;;;4.68;;
48268;SDS011;34088;52.232;5.196;2023-01-10T02:51:53;23.73;;;3.92;;
48268;SDS011;34088;52.232;5.196;2023-01-10T02:54:21;23.30;;;3.85;;
48268;SDS011;34088;52.232;5.196;2023-01-10T02:59:47;31.50;;;4.53;;
48268;SDS011;34088;52.232;5.196;2023-01-10T03:05:26;25.63;;;4.05;;
48268;SDS011;34088;52.232;5.196;2023-01-10T03:08:17;27.65;;;5.03;;
48268;SDS011;34088;52.232;5.196;2023-01-10T03:11:00;18.02;;;3.38;;
48268;SDS011;34088;52.232;5.196;2023-01-10T03:13:42;20.75;;;4.22;;
48268;SDS011;34088;52.232;5.196;2023-01-10T03:16:14;14.60;;;3.53;;
48268;SDS011;34088;52.232;5.196;2023-01-10T03:18:50;20.05;;;3.45;;
48268;SDS011;34088;52.232;5.196;2023-01-10T03:21:21;22.33;;;4.22;;
48268;SDS011;34088;52.232;5.196;2023-01-10T03:23:48;26.40;;;4.28;;
48268;SDS011;34088;52.232;5.196;2023-01-10T03:26:16;23.48;;;4.50;;
48268;SDS011;34088;52.232;5.196;2023-01-10T03:28:51;28.25;;;4.10;;
48268;SDS011;34088;52.232;5.196;2023-01-10T03:31:23;31.85;;;4.97;;
48268;SDS011;34088;52.232;5.196;2023-01-10T03:33:52;32.60;;;5.10;;
48268;SDS011;34088;52.232;5.196;2023-01-10T03:36:29;28.40;;;4.78;;
48268;SDS011;34088;52.232;5.196;2023-01-10T03:38:57;25.73;;;4.70;;
48268;SDS011;34088;52.232;5.196;2023-01-10T03:44:34;28.15;;;4.95;;
48268;SDS011;34088;52.232;5.196;2023-01-10T03:50:09;31.05;;;4.32;;
48268;SDS011;34088;52.232;5.196;2023-01-10T03:52:36;29.38;;;4.57;;
48268;SDS011;34088;52.232;5.196;2023-01-10T03:55:04;30.98;;;4.50;;
48268;SDS011;34088;52.232;5.196;2023-01-10T03:57:42;23.05;;;4.15;;
48268;SDS011;34088;52.232;5.196;2023-01-10T04:00:09;32.38;;;5.05;;
48268;SDS011;34088;52.232;5.196;2023-01-10T04:02:36;24.15;;;4.53;;
48268;SDS011;34088;52.232;5.196;2023-01-10T04:05:04;22.40;;;3.90;;
48268;SDS011;34088;52.232;5.196;2023-01-10T04:07:31;28.33;;;4.78;;
48268;SDS011;34088;52.232;5.196;2023-01-10T04:09:56;25.77;;;4.25;;
48268;SDS011;34088;52.232;5.196;2023-01-10T04:12:22;22.30;;;3.90;;
48268;SDS011;34088;52.232;5.196;2023-01-10T04:15:12;22.88;;;4.13;;
48268;SDS011;34088;52.232;5.196;2023-01-10T04:17:41;31.60;;;4.53;;
48268;SDS011;34088;52.232;5.196;2023-01-10T04:20:16;20.20;;;4.15;;
48268;SDS011;34088;52.232;5.196;2023-01-10T04:22:43;24.08;;;4.22;;
48268;SDS011;34088;52.232;5.196;2023-01-10T04:25:11;21.00;;;3.75;;
48268;SDS011;34088;52.232;5.196;2023-01-10T04:27:47;27.88;;;4.00;;
48268;SDS011;34088;52.232;5.196;2023-01-10T04:30:14;26.13;;;4.28;;
48268;SDS011;34088;52.232;5.196;2023-01-10T04:32:40;25.77;;;3.95;;
48268;SDS011;34088;52.232;5.196;2023-01-10T04:35:06;29.90;;;4.07;;
48268;SDS011;34088;52.232;5.196;2023-01-10T04:37:32;23.65;;;4.15;;
48268;SDS011;34088;52.232;5.196;2023-01-10T04:39:58;26.05;;;4.65;;
48268;SDS011;34088;52.232;5.196;2023-01-10T04:42:23;31.35;;;4.43;;
48268;SDS011;34088;52.232;5.196;2023-01-10T04:44:49;27.10;;;4.82;;
48268;SDS011;34088;52.232;5.196;2023-01-10T04:47:14;25.92;;;4.25;;
48268;SDS011;34088;52.232;5.196;2023-01-10T04:49:40;26.75;;;4.88;;
48268;SDS011;34088;52.232;5.196;2023-01-10T04:52:05;26.27;;;4.47;;
48268;SDS011;34088;52.232;5.196;2023-01-10T04:54:34;24.23;;;4.50;;
48268;SDS011;34088;52.232;5.196;2023-01-10T04:57:00;27.70;;;4.90;;
48268;SDS011;34088;52.232;5.196;2023-01-10T04:59:25;28.15;;;5.50;;
48268;SDS011;34088;52.232;5.196;2023-01-10T05:01:51;28.20;;;5.55;;
48268;SDS011;34088;52.232;5.196;2023-01-10T05:04:16;31.10;;;5.00;;
48268;SDS011;34088;52.232;5.196;2023-01-10T05:09:07;26.67;;;4.80;;
48268;SDS011;34088;52.232;5.196;2023-01-10T05:11:33;32.50;;;4.78;;
48268;SDS011;34088;52.232;5.196;2023-01-10T05:13:59;30.35;;;4.20;;
48268;SDS011;34088;52.232;5.196;2023-01-10T05:19:00;26.23;;;4.78;;
48268;SDS011;34088;52.232;5.196;2023-01-10T05:21:25;34.00;;;5.40;;
48268;SDS011;34088;52.232;5.196;2023-01-10T05:26:18;33.13;;;4.80;;
48268;SDS011;34088;52.232;5.196;2023-01-10T05:28:44;20.55;;;4.40;;
48268;SDS011;34088;52.232;5.196;2023-01-10T05:33:37;27.40;;;4.63;;
48268;SDS011;34088;52.232;5.196;2023-01-10T05:36:03;30.02;;;5.10;;
48268;SDS011;34088;52.232;5.196;2023-01-10T05:38:30;29.05;;;4.32;;
48268;SDS011;34088;52.232;5.196;2023-01-10T05:40:56;28.92;;;5.05;;
48268;SDS011;34088;52.232;5.196;2023-01-10T05:43:22;35.47;;;4.47;;
48268;SDS011;34088;52.232;5.196;2023-01-10T05:45:48;26.83;;;4.50;;
48268;SDS011;34088;52.232;5.196;2023-01-10T05:50:39;28.42;;;4.38;;
48268;SDS011;34088;52.232;5.196;2023-01-10T05:53:05;33.10;;;4.57;;
48268;SDS011;34088;52.232;5.196;2023-01-10T05:57:57;30.60;;;4.57;;
48268;SDS011;34088;52.232;5.196;2023-01-10T06:00:22;23.67;;;4.50;;
48268;SDS011;34088;52.232;5.196;2023-01-10T06:02:48;24.58;;;4.25;;
48268;SDS011;34088;52.232;5.196;2023-01-10T06:05:14;31.25;;;4.78;;
48268;SDS011;34088;52.232;5.196;2023-01-10T06:10:05;28.35;;;4.75;;
48268;SDS011;34088;52.232;5.196;2023-01-10T06:12:30;25.73;;;4.30;;
48268;SDS011;34088;52.232;5.196;2023-01-10T06:14:56;26.35;;;4.30;;
48268;SDS011;34088;52.232;5.196;2023-01-10T06:17:21;28.40;;;4.60;;
48268;SDS011;34088;52.232;5.196;2023-01-10T06:22:12;31.00;;;4.60;;
48268;SDS011;34088;52.232;5.196;2023-01-10T06:24:38;28.80;;;4.43;;
48268;SDS011;34088;52.232;5.196;2023-01-10T06:29:29;28.73;;;4.30;;
48268;SDS011;34088;52.232;5.196;2023-01-10T06:31:55;34.78;;;6.18;;
48268;SDS011;34088;52.232;5.196;2023-01-10T06:34:21;32.38;;;4.70;;
48268;SDS011;34088;52.232;5.196;2023-01-10T06:39:12;34.00;;;4.55;;
48268;SDS011;34088;52.232;5.196;2023-01-10T06:44:03;26.30;;;4.53;;
48268;SDS011;34088;52.232;5.196;2023-01-10T06:46:28;30.27;;;4.97;;
48268;SDS011;34088;52.232;5.196;2023-01-10T06:48:54;30.73;;;4.47;;
48268;SDS011;34088;52.232;5.196;2023-01-10T06:53:45;29.98;;;4.30;;
48268;SDS011;34088;52.232;5.196;2023-01-10T06:56:10;26.65;;;5.22;;
48268;SDS011;34088;52.232;5.196;2023-01-10T07:01:05;30.67;;;4.43;;
48268;SDS011;34088;52.232;5.196;2023-01-10T07:03:31;29.08;;;4.80;;
48268;SDS011;34088;52.232;5.196;2023-01-10T07:06:00;26.95;;;5.15;;
48268;SDS011;34088;52.232;5.196;2023-01-10T07:08:26;28.15;;;4.30;;
48268;SDS011;34088;52.232;5.196;2023-01-10T07:10:52;29.23;;;4.97;;
48268;SDS011;34088;52.232;5.196;2023-01-10T07:15:43;33.30;;;5.65;;
48268;SDS011;34088;52.232;5.196;2023-01-10T07:18:09;30.77;;;4.85;;
48268;SDS011;34088;52.232;5.196;2023-01-10T07:20:34;30.13;;;4.90;;
48268;SDS011;34088;52.232;5.196;2023-01-10T07:25:26;29.85;;;4.97;;
48268;SDS011;34088;52.232;5.196;2023-01-10T07:27:52;27.45;;;5.10;;
48268;SDS011;34088;52.232;5.196;2023-01-10T07:30:19;30.48;;;5.13;;
48268;SDS011;34088;52.232;5.196;2023-01-10T07:32:51;30.52;;;4.93;;
48268;SDS011;34088;52.232;5.196;2023-01-10T07:35:17;29.75;;;5.25;;
48268;SDS011;34088;52.232;5.196;2023-01-10T07:37:43;32.95;;;5.28;;
48268;SDS011;34088;52.232;5.196;2023-01-10T07:42:34;31.77;;;4.53;;
48268;SDS011;34088;52.232;5.196;2023-01-10T07:45:00;39.85;;;5.80;;
48268;SDS011;34088;52.232;5.196;2023-01-10T07:49:52;29.27;;;5.45;;
48268;SDS011;34088;52.232;5.196;2023-01-10T07:52:18;41.63;;;5.30;;
48268;SDS011;34088;52.232;5.196;2023-01-10T07:54:44;31.60;;;5.18;;
48268;SDS011;34088;52.232;5.196;2023-01-10T07:59:34;36.10;;;5.53;;
48268;SDS011;34088;52.232;5.196;2023-01-10T08:02:00;34.85;;;6.22;;
48268;SDS011;34088;52.232;5.196;2023-01-10T08:06:53;36.90;;;5.47;;
48268;SDS011;34088;52.232;5.196;2023-01-10T08:09:18;32.45;;;5.57;;
48268;SDS011;34088;52.232;5.196;2023-01-10T08:11:44;31.75;;;5.00;;
48268;SDS011;34088;52.232;5.196;2023-01-10T08:14:09;31.27;;;5.70;;
48268;SDS011;34088;52.232;5.196;2023-01-10T08:16:35;32.38;;;5.70;;
48268;SDS011;34088;52.232;5.196;2023-01-10T08:21:26;31.10;;;5.80;;
48268;SDS011;34088;52.232;5.196;2023-01-10T08:23:52;33.28;;;6.25;;
48268;SDS011;34088;52.232;5.196;2023-01-10T08:26:18;32.75;;;6.18;;
48268;SDS011;34088;52.232;5.196;2023-01-10T08:28:44;30.77;;;6.10;;
48268;SDS011;34088;52.232;5.196;2023-01-10T08:33:38;34.58;;;7.43;;
48268;SDS011;34088;52.232;5.196;2023-01-10T08:36:04;35.65;;;6.85;;
48268;SDS011;34088;52.232;5.196;2023-01-10T08:40:56;44.75;;;10.32;;
48268;SDS011;34088;52.232;5.196;2023-01-10T08:43:24;40.10;;;7.13;;
48268;SDS011;34088;52.232;5.196;2023-01-10T08:48:15;32.78;;;7.07;;
48268;SDS011;34088;52.232;5.196;2023-01-10T08:50:41;30.58;;;6.88;;
48268;SDS011;34088;52.232;5.196;2023-01-10T08:55:32;33.20;;;7.32;;
48268;SDS011;34088;52.232;5.196;2023-01-10T08:58:01;41.70;;;8.38;;
48268;SDS011;34088;52.232;5.196;2023-01-10T09:02:52;29.90;;;6.22;;
48268;SDS011;34088;52.232;5.196;2023-01-10T09:07:43;33.97;;;6.93;;
48268;SDS011;34088;52.232;5.196;2023-01-10T09:10:10;30.98;;;7.78;;
48268;SDS011;34088;52.232;5.196;2023-01-10T09:15:23;33.60;;;7.25;;
48268;SDS011;34088;52.232;5.196;2023-01-10T09:17:58;28.48;;;6.85;;
48268;SDS011;34088;52.232;5.196;2023-01-10T09:20:25;41.40;;;8.15;;
48268;SDS011;34088;52.232;5.196;2023-01-10T09:22:51;35.78;;;7.22;;
48268;SDS011;34088;52.232;5.196;2023-01-10T09:27:42;33.03;;;6.80;;
48268;SDS011;34088;52.232;5.196;2023-01-10T09:30:08;28.30;;;7.10;;
48268;SDS011;34088;52.232;5.196;2023-01-10T09:32:34;34.50;;;7.05;;
48268;SDS011;34088;52.232;5.196;2023-01-10T09:35:00;32.17;;;6.82;;
48268;SDS011;34088;52.232;5.196;2023-01-10T09:39:51;28.50;;;6.90;;
48268;SDS011;34088;52.232;5.196;2023-01-10T09:42:24;37.08;;;7.25;;
48268;SDS011;34088;52.232;5.196;2023-01-10T09:47:45;25.98;;;6.75;;
48268;SDS011;34088;52.232;5.196;2023-01-10T09:52:47;35.85;;;7.13;;
48268;SDS011;34088;52.232;5.196;2023-01-10T09:55:22;30.70;;;6.65;;
48268;SDS011;34088;52.232;5.196;2023-01-10T09:57:48;33.72;;;6.85;;
48268;SDS011;34088;52.232;5.196;2023-01-10T10:00:18;32.65;;;6.55;;
48268;SDS011;34088;52.232;5.196;2023-01-10T10:02:46;33.58;;;6.32;;
48268;SDS011;34088;52.232;5.196;2023-01-10T10:05:21;39.67;;;7.18;;
48268;SDS011;34088;52.232;5.196;2023-01-10T10:07:59;31.27;;;6.47;;
48268;SDS011;34088;52.232;5.196;2023-01-10T10:10:31;28.48;;;5.78;;
48268;SDS011;34088;52.232;5.196;2023-01-10T10:15:40;35.65;;;6.20;;
48268;SDS011;34088;52.232;5.196;2023-01-10T10:23:30;32.85;;;6.43;;
48268;SDS011;34088;52.232;5.196;2023-01-10T10:34:33;29.27;;;5.57;;
48268;SDS011;34088;52.232;5.196;2023-01-10T10:42:20;36.70;;;5.93;;
48268;SDS011;34088;52.232;5.196;2023-01-10T10:47:16;34.65;;;6.63;;
48268;SDS011;34088;52.232;5.196;2023-01-10T10:49:47;34.22;;;5.85;;
48268;SDS011;34088;52.232;5.196;2023-01-10T10:54:52;35.50;;;5.35;;
48268;SDS011;34088;52.232;5.196;2023-01-10T10:57:18;29.73;;;5.68;;
48268;SDS011;34088;52.232;5.196;2023-01-10T10:59:46;32.97;;;5.82;;
48268;SDS011;34088;52.232;5.196;2023-01-10T11:02:28;28.15;;;5.00;;
48268;SDS011;34088;52.232;5.196;2023-01-10T11:04:57;28.85;;;5.47;;
48268;SDS011;34088;52.232;5.196;2023-01-10T11:07:24;24.60;;;4.95;;
48268;SDS011;34088;52.232;5.196;2023-01-10T11:09:53;30.67;;;5.28;;
48268;SDS011;34088;52.232;5.196;2023-01-10T11:12:27;28.90;;;5.40;;
48268;SDS011;34088;52.232;5.196;2023-01-10T11:14:56;25.48;;;4.78;;
48268;SDS011;34088;52.232;5.196;2023-01-10T11:17:24;36.13;;;6.10;;
48268;SDS011;34088;52.232;5.196;2023-01-10T11:19:54;26.50;;;4.97;;
48268;SDS011;34088;52.232;5.196;2023-01-10T11:22:45;30.25;;;5.15;;
48268;SDS011;34088;52.232;5.196;2023-01-10T11:25:13;29.38;;;4.93;;
48268;SDS011;34088;52.232;5.196;2023-01-10T11:27:53;29.85;;;4.97;;
48268;SDS011;34088;52.232;5.196;2023-01-10T11:30:21;23.65;;;5.10;;
48268;SDS011;34088;52.232;5.196;2023-01-10T11:32:51;24.17;;;5.05;;
48268;SDS011;34088;52.232;5.196;2023-01-10T11:35:34;26.48;;;5.15;;
48268;SDS011;34088;52.232;5.196;2023-01-10T11:38:04;25.70;;;4.88;;
48268;SDS011;34088;52.232;5.196;2023-01-10T11:40:33;38.22;;;5.72;;
48268;SDS011;34088;52.232;5.196;2023-01-10T11:43:20;29.08;;;5.35;;
48268;SDS011;34088;52.232;5.196;2023-01-10T11:45:55;30.30;;;5.60;;
48268;SDS011;34088;52.232;5.196;2023-01-10T11:48:26;27.17;;;5.40;;
48268;SDS011;34088;52.232;5.196;2023-01-10T11:51:15;27.92;;;5.07;;
48268;SDS011;34088;52.232;5.196;2023-01-10T11:53:50;21.50;;;4.38;;
48268;SDS011;34088;52.232;5.196;2023-01-10T11:56:27;29.67;;;4.90;;
48268;SDS011;34088;52.232;5.196;2023-01-10T11:58:55;20.83;;;4.45;;
48268;SDS011;34088;52.232;5.196;2023-01-10T12:01:38;29.50;;;5.07;;
48268;SDS011;34088;52.232;5.196;2023-01-10T12:04:14;26.70;;;5.22;;
48268;SDS011;34088;52.232;5.196;2023-01-10T12:06:44;25.40;;;4.60;;
48268;SDS011;34088;52.232;5.196;2023-01-10T12:12:04;23.30;;;4.32;;
48268;SDS011;34088;52.232;5.196;2023-01-10T12:14:39;25.00;;;4.30;;
48268;SDS011;34088;52.232;5.196;2023-01-10T12:19:29;25.70;;;4.75;;
48268;SDS011;34088;52.232;5.196;2023-01-10T12:24:34;25.00;;;4.22;;
48268;SDS011;34088;52.232;5.196;2023-01-10T12:27:03;22.98;;;4.45;;
48268;SDS011;34088;52.232;5.196;2023-01-10T12:29:33;27.40;;;4.45;;
48268;SDS011;34088;52.232;5.196;2023-01-10T12:32:02;28.40;;;5.57;;
48268;SDS011;34088;52.232;5.196;2023-01-10T12:34:34;25.88;;;5.05;;
48268;SDS011;34088;52.232;5.196;2023-01-10T12:37:12;21.53;;;4.60;;
48268;SDS011;34088;52.232;5.196;2023-01-10T12:40:00;26.65;;;4.68;;
48268;SDS011;34088;52.232;5.196;2023-01-10T12:42:44;24.00;;;5.28;;
48268;SDS011;34088;52.232;5.196;2023-01-10T12:45:46;31.58;;;4.70;;
48268;SDS011;34088;52.232;5.196;2023-01-10T12:51:01;26.83;;;4.93;;
48268;SDS011;34088;52.232;5.196;2023-01-10T12:53:31;21.98;;;4.32;;
48268;SDS011;34088;52.232;5.196;2023-01-10T12:56:01;27.50;;;5.35;;
48268;SDS011;34088;52.232;5.196;2023-01-10T13:00:58;27.55;;;4.60;;
48268;SDS011;34088;52.232;5.196;2023-01-10T13:03:27;26.60;;;4.47;;
48268;SDS011;34088;52.232;5.196;2023-01-10T13:05:55;26.98;;;4.93;;
48268;SDS011;34088;52.232;5.196;2023-01-10T13:08:22;31.58;;;5.93;;
48268;SDS011;34088;52.232;5.196;2023-01-10T13:10:51;20.15;;;4.30;;
48268;SDS011;34088;52.232;5.196;2023-01-10T13:13:20;24.60;;;4.15;;
48268;SDS011;34088;52.232;5.196;2023-01-10T13:16:08;19.70;;;3.78;;
48268;SDS011;34088;52.232;5.196;2023-01-10T13:18:56;22.38;;;4.70;;
48268;SDS011;34088;52.232;5.196;2023-01-10T13:21:26;23.13;;;4.80;;
48268;SDS011;34088;52.232;5.196;2023-01-10T13:23:52;25.15;;;4.93;;
48268;SDS011;34088;52.232;5.196;2023-01-10T13:26:21;21.33;;;4.60;;
48268;SDS011;34088;52.232;5.196;2023-01-10T13:28:57;24.17;;;4.55;;
48268;SDS011;34088;52.232;5.196;2023-01-10T13:31:32;24.77;;;4.38;;
48268;SDS011;34088;52.232;5.196;2023-01-10T13:34:00;26.13;;;3.97;;
48268;SDS011;34088;52.232;5.196;2023-01-10T13:37:03;25.80;;;4.95;;
48268;SDS011;34088;52.232;5.196;2023-01-10T13:39:33;20.83;;;4.28;;
48268;SDS011;34088;52.232;5.196;2023-01-10T14:00:50;24.48;;;4.47;;
48268;SDS011;34088;52.232;5.196;2023-01-10T14:06:30;24.90;;;5.30;;
48268;SDS011;34088;52.232;5.196;2023-01-10T14:08:52;28.10;;;5.30;;
48268;SDS011;34088;52.232;5.196;2023-01-10T14:11:26;28.88;;;4.93;;
48268;SDS011;34088;52.232;5.196;2023-01-10T14:14:12;21.05;;;4.28;;
48268;SDS011;34088;52.232;5.196;2023-01-10T14:16:52;25.08;;;4.68;;
48268;SDS011;34088;52.232;5.196;2023-01-10T14:19:25;27.67;;;5.15;;
48268;SDS011;34088;52.232;5.196;2023-01-10T14:21:57;25.25;;;5.47;;
48268;SDS011;34088;52.232;5.196;2023-01-10T14:26:54;25.27;;;4.97;;
48268;SDS011;34088;52.232;5.196;2023-01-10T14:29:22;27.13;;;5.20;;
48268;SDS011;34088;52.232;5.196;2023-01-10T14:31:49;20.80;;;4.55;;
48268;SDS011;34088;52.232;5.196;2023-01-10T14:34:18;25.67;;;5.07;;
48268;SDS011;34088;52.232;5.196;2023-01-10T14:36:59;21.55;;;4.30;;
48268;SDS011;34088;52.232;5.196;2023-01-10T14:39:27;28.45;;;5.32;;
48268;SDS011;34088;52.232;5.196;2023-01-10T14:41:55;21.65;;;4.80;;
48268;SDS011;34088;52.232;5.196;2023-01-10T14:47:29;27.90;;;4.47;;
48268;SDS011;34088;52.232;5.196;2023-01-10T14:49:57;26.25;;;5.10;;
48268;SDS011;34088;52.232;5.196;2023-01-10T14:52:30;29.05;;;5.18;;
48268;SDS011;34088;52.232;5.196;2023-01-10T14:57:52;21.67;;;4.32;;
48268;SDS011;34088;52.232;5.196;2023-01-10T15:00:27;20.30;;;4.00;;
48268;SDS011;34088;52.232;5.196;2023-01-10T15:02:54;22.63;;;4.60;;
48268;SDS011;34088;52.232;5.196;2023-01-10T15:05:24;29.17;;;5.93;;
48268;SDS011;34088;52.232;5.196;2023-01-10T15:07:51;25.50;;;5.13;;
48268;SDS011;34088;52.232;5.196;2023-01-10T15:10:28;24.40;;;4.55;;
48268;SDS011;34088;52.232;5.196;2023-01-10T15:12:58;22.77;;;4.53;;
48268;SDS011;34088;52.232;5.196;2023-01-10T15:15:29;27.50;;;4.78;;
48268;SDS011;34088;52.232;5.196;2023-01-10T15:17:56;25.75;;;4.97;;
48268;SDS011;34088;52.232;5.196;2023-01-10T15:20:23;30.02;;;5.15;;
48268;SDS011;34088;52.232;5.196;2023-01-10T15:30:13;26.92;;;5.15;;
48268;SDS011;34088;52.232;5.196;2023-01-10T15:32:47;20.58;;;3.83;;
48268;SDS011;34088;52.232;5.196;2023-01-10T15:35:14;19.65;;;3.78;;
48268;SDS011;34088;52.232;5.196;2023-01-10T15:40:18;26.77;;;5.63;;
48268;SDS011;34088;52.232;5.196;2023-01-10T15:42:46;22.63;;;4.38;;
48268;SDS011;34088;52.232;5.196;2023-01-10T15:50:23;23.58;;;4.78;;
48268;SDS011;34088;52.232;5.196;2023-01-10T15:52:52;16.08;;;4.82;;
48268;SDS011;34088;52.232;5.196;2023-01-10T16:00:42;19.05;;;4.65;;
48268;SDS011;34088;52.232;5.196;2023-01-10T16:03:17;14.68;;;4.28;;
48268;SDS011;34088;52.232;5.196;2023-01-10T16:05:48;16.73;;;4.47;;
48268;SDS011;34088;52.232;5.196;2023-01-10T16:08:15;20.75;;;4.68;;
48268;SDS011;34088;52.232;5.196;2023-01-10T16:10:42;14.63;;;4.47;;
48268;SDS011;34088;52.232;5.196;2023-01-10T16:15:50;18.88;;;4.53;;
48268;SDS011;34088;52.232;5.196;2023-01-10T16:20:41;15.38;;;4.38;;
48268;SDS011;34088;52.232;5.196;2023-01-10T16:23:12;13.30;;;4.20;;
48268;SDS011;34088;52.232;5.196;2023-01-10T16:25:44;15.02;;;4.38;;
48268;SDS011;34088;52.232;5.196;2023-01-10T16:28:11;12.38;;;3.83;;
48268;SDS011;34088;52.232;5.196;2023-01-10T16:30:40;10.43;;;3.80;;
48268;SDS011;34088;52.232;5.196;2023-01-10T16:33:14;13.02;;;4.10;;
48268;SDS011;34088;52.232;5.196;2023-01-10T16:35:44;14.38;;;4.50;;
48268;SDS011;34088;52.232;5.196;2023-01-10T16:38:11;13.15;;;3.58;;
48268;SDS011;34088;52.232;5.196;2023-01-10T16:40:38;9.93;;;3.25;;
48268;SDS011;34088;52.232;5.196;2023-01-10T16:43:05;13.23;;;3.95;;
48268;SDS011;34088;52.232;5.196;2023-01-10T16:45:53;11.25;;;3.90;;
48268;SDS011;34088;52.232;5.196;2023-01-10T16:48:24;13.40;;;4.20;;
48268;SDS011;34088;52.232;5.196;2023-01-10T16:50:50;8.40;;;3.60;;
48268;SDS011;34088;52.232;5.196;2023-01-10T16:55:44;9.23;;;3.65;;
48268;SDS011;34088;52.232;5.196;2023-01-10T16:58:11;8.70;;;3.65;;
48268;SDS011;34088;52.232;5.196;2023-01-10T17:00:38;9.35;;;3.30;;
48268;SDS011;34088;52.232;5.196;2023-01-10T17:03:06;8.85;;;3.55;;
48268;SDS011;34088;52.232;5.196;2023-01-10T17:05:34;8.30;;;3.35;;
48268;SDS011;34088;52.232;5.196;2023-01-10T17:08:01;6.38;;;3.28;;
48268;SDS011;34088;52.232;5.196;2023-01-10T17:12:52;8.95;;;3.63;;
48268;SDS011;34088;52.232;5.196;2023-01-10T17:15:18;8.25;;;3.60;;
48268;SDS011;34088;52.232;5.196;2023-01-10T17:17:44;8.52;;;3.10;;
48268;SDS011;34088;52.232;5.196;2023-01-10T17:20:10;8.02;;;3.30;;
48268;SDS011;34088;52.232;5.196;2023-01-10T17:22:37;7.68;;;3.60;;
48268;SDS011;34088;52.232;5.196;2023-01-10T17:27:28;8.32;;;4.07;;
48268;SDS011;34088;52.232;5.196;2023-01-10T17:32:19;9.60;;;3.47;;
48268;SDS011;34088;52.232;5.196;2023-01-10T17:34:44;6.35;;;3.45;;
48268;SDS011;34088;52.232;5.196;2023-01-10T17:37:10;7.75;;;4.03;;
48268;SDS011;34088;52.232;5.196;2023-01-10T17:42:02;5.53;;;4.07;;
48268;SDS011;34088;52.232;5.196;2023-01-10T17:44:28;6.10;;;4.50;;
48268;SDS011;34088;52.232;5.196;2023-01-10T17:49:21;6.43;;;4.40;;
48268;SDS011;34088;52.232;5.196;2023-01-10T17:54:12;7.00;;;5.45;;
48268;SDS011;34088;52.232;5.196;2023-01-10T17:56:39;10.82;;;6.40;;
48268;SDS011;34088;52.232;5.196;2023-01-10T18:01:30;9.15;;;6.40;;
48268;SDS011;34088;52.232;5.196;2023-01-10T18:06:21;10.52;;;7.45;;
48268;SDS011;34088;52.232;5.196;2023-01-10T18:08:46;8.90;;;6.95;;
48268;SDS011;34088;52.232;5.196;2023-01-10T18:11:12;9.38;;;7.38;;
48268;SDS011;34088;52.232;5.196;2023-01-10T18:13:38;9.95;;;8.40;;
48268;SDS011;34088;52.232;5.196;2023-01-10T18:16:03;11.05;;;8.35;;
48268;SDS011;34088;52.232;5.196;2023-01-10T18:18:29;12.32;;;9.05;;
48268;SDS011;34088;52.232;5.196;2023-01-10T18:20:55;12.38;;;9.65;;
48268;SDS011;34088;52.232;5.196;2023-01-10T18:23:24;14.25;;;10.93;;
48268;SDS011;34088;52.232;5.196;2023-01-10T18:28:20;11.25;;;8.63;;
48268;SDS011;34088;52.232;5.196;2023-01-10T18:30:47;11.88;;;9.55;;
48268;SDS011;34088;52.232;5.196;2023-01-10T18:33:12;13.02;;;10.10;;
48268;SDS011;34088;52.232;5.196;2023-01-10T18:38:03;12.50;;;9.80;;
48268;SDS011;34088;52.232;5.196;2023-01-10T18:40:29;17.83;;;10.35;;
48268;SDS011;34088;52.232;5.196;2023-01-10T18:42:55;12.60;;;10.40;;
48268;SDS011;34088;52.232;5.196;2023-01-10T18:45:22;12.05;;;10.00;;
48268;SDS011;34088;52.232;5.196;2023-01-10T18:47:51;14.88;;;10.65;;
48268;SDS011;34088;52.232;5.196;2023-01-10T18:50:22;12.57;;;10.02;;
48268;SDS011;34088;52.232;5.196;2023-01-10T18:52:48;12.50;;;10.30;;
48268;SDS011;34088;52.232;5.196;2023-01-10T18:55:14;15.25;;;9.80;;
48268;SDS011;34088;52.232;5.196;2023-01-10T18:57:39;12.82;;;9.60;;
48268;SDS011;34088;52.232;5.196;2023-01-10T19:00:05;12.10;;;9.80;;
48268;SDS011;34088;52.232;5.196;2023-01-10T19:02:33;14.45;;;10.00;;